Time;durP1;ratioP1;P1;durP2;ratioP2;P2;SDS_P1;SDS_P2;PMS_P1;PMS_P2;Temp;Humidity;BMP_temperature;BMP_pressure;BME280_temperature;BME280_humidity;BME280_pressure;Samples;Min_cycle;Max_cycle;Signal;HPM_P1;HPM_P2
2022/04/30 00:01:36;;;;;;;31.00;19.23;;;;;;;2.75;74.87;102485.43;1683523;83;21175;-87
2022/04/30 00:05:14;;;;;;;30.27;19.50;;;;;;;2.54;74.86;102451.64;1660112;84;21684;-87
2022/04/30 00:07:42;;;;;;;31.52;19.02;;;;;;;2.67;74.89;102477.89;1672226;84;21611;-89
2022/04/30 00:10:09;;;;;;;28.75;19.98;;;;;;;2.68;74.96;102474.89;1672933;83;21130;-92
2022/04/30 00:12:39;;;;;;;36.55;19.67;;;;;;;2.67;74.96;102476.59;1672082;84;22418;-93
2022/04/30 00:15:07;;;;;;;31.45;20.52;;;;;;;2.67;74.90;102472.69;1683706;84;21957;-93
2022/04/30 00:17:34;;;;;;;30.68;20.55;;;;;;;2.63;74.84;102472.31;1703726;83;21071;-95
2022/04/30 00:20:03;;;;;;;33.50;20.27;;;;;;;2.61;74.86;102470.87;1682502;83;21102;-86
2022/04/30 00:22:36;;;;;;;36.77;20.68;;;;;;;2.59;74.87;102471.14;1670414;84;21735;-92
2022/04/30 00:25:01;;;;;;;34.55;20.77;;;;;;;2.57;74.89;102475.67;1667872;83;22077;-86
2022/04/30 00:27:28;;;;;;;35.73;21.85;;;;;;;2.57;74.88;102477.87;1691981;83;21086;-93
2022/04/30 00:29:58;;;;;;;34.90;23.10;;;;;;;2.57;74.91;102473.07;1699752;83;21062;-86
2022/04/30 00:32:25;;;;;;;36.50;21.02;;;;;;;2.56;74.88;102475.17;1696152;83;21694;-94
2022/04/30 00:34:51;;;;;;;38.58;22.67;;;;;;;2.37;74.85;102442.80;1699390;82;21604;-95
2022/04/30 00:37:19;;;;;;;43.30;22.85;;;;;;;2.51;74.84;102474.36;1709250;83;22658;-86
2022/04/30 00:39:51;;;;;;;37.40;23.35;;;;;;;2.38;74.85;102449.80;1700898;83;21111;-87
2022/04/30 00:42:19;;;;;;;36.23;22.98;;;;;;;2.49;74.96;102465.52;1701136;82;21125;-89
2022/04/30 00:44:47;;;;;;;36.17;22.37;;;;;;;2.47;74.83;102470.98;1718083;83;21650;-89
2022/04/30 00:47:18;;;;;;;37.05;22.32;;;;;;;2.44;74.89;102467.21;1712381;83;21078;-88
2022/04/30 00:49:46;;;;;;;42.73;23.40;;;;;;;2.46;74.86;102473.45;1713604;82;21884;-87
2022/04/30 00:52:15;;;;;;;38.90;22.45;;;;;;;2.44;74.87;102475.01;1717343;83;21067;-87
2022/04/30 00:54:49;;;;;;;38.30;22.77;;;;;;;2.41;74.79;102467.88;1701597;83;21135;-87
2022/04/30 00:57:21;;;;;;;36.00;22.25;;;;;;;2.38;74.77;102465.00;1695774;83;21093;-87
2022/04/30 00:59:53;;;;;;;38.05;22.42;;;;;;;2.33;74.76;102465.92;1701152;83;21135;-88
2022/04/30 01:02:20;;;;;;;32.75;22.20;;;;;;;2.30;74.71;102463.45;1710912;83;22673;-88
2022/04/30 01:04:52;;;;;;;34.90;21.57;;;;;;;2.26;74.70;102465.27;1682703;84;21548;-87
2022/04/30 01:07:19;;;;;;;36.38;22.73;;;;;;;2.23;74.73;102467.59;1706075;83;21653;-86
2022/04/30 01:09:48;;;;;;;35.98;22.73;;;;;;;2.20;74.76;102458.25;1665388;83;21197;-88
2022/04/30 01:12:15;;;;;;;38.88;23.62;;;;;;;2.18;74.83;102463.67;1713804;82;21062;-87
2022/04/30 01:14:42;;;;;;;43.40;23.98;;;;;;;2.12;74.81;102466.29;1698379;83;22454;-87
2022/04/30 01:17:10;;;;;;;40.17;23.87;;;;;;;2.09;74.89;102464.71;1706688;83;21654;-87
2022/04/30 01:19:43;;;;;;;40.23;23.55;;;;;;;2.06;74.96;102460.53;1706427;83;21988;-87
2022/04/30 01:22:14;;;;;;;37.75;23.65;;;;;;;2.05;74.98;102465.23;1712523;83;21540;-86
2022/04/30 01:24:41;;;;;;;37.73;23.47;;;;;;;2.03;75.03;102460.30;1681640;84;21145;-85
2022/04/30 01:27:07;;;;;;;42.98;24.55;;;;;;;2.02;75.01;102462.35;1701986;83;21199;-89
2022/04/30 01:29:36;;;;;;;39.00;23.47;;;;;;;2.00;75.04;102459.11;1680140;84;21710;-89
2022/04/30 01:37:37;;;;;;;38.85;22.52;;;;;;;1.95;75.26;102458.70;1636594;84;21709;-87
2022/04/30 01:40:12;;;;;;;38.40;23.07;;;;;;;1.94;75.26;102453.90;1718302;81;21911;-88
2022/04/30 01:42:43;;;;;;;34.73;21.68;;;;;;;1.93;75.26;102454.70;1716920;82;21044;-88
2022/04/30 01:45:10;;;;;;;31.25;20.43;;;;;;;1.92;75.22;102451.95;1705357;83;21076;-87
2022/04/30 01:50:10;;;;;;;37.83;22.27;;;;;;;1.87;75.23;102455.44;1704070;83;21141;-87
2022/04/30 01:52:37;;;;;;;40.43;21.57;;;;;;;1.84;75.23;102453.89;1703201;82;22618;-88
2022/04/30 01:55:09;;;;;;;36.48;20.85;;;;;;;1.84;75.34;102451.30;1696124;83;21640;-90
2022/04/30 01:57:54;;;;;;;38.80;22.42;;;;;;;1.84;75.34;102457.78;1694938;82;21211;-87
2022/04/30 02:00:26;;;;;;;37.17;20.40;;;;;;;1.84;75.35;102449.06;1657274;84;21128;-87
2022/04/30 02:02:54;;;;;;;36.38;22.95;;;;;;;1.83;75.37;102449.45;1678493;84;21210;-89
2022/04/30 02:05:22;;;;;;;31.68;20.82;;;;;;;1.82;75.38;102451.91;1642042;84;21842;-87
2022/04/30 02:08:09;;;;;;;39.92;22.58;;;;;;;1.80;75.47;102445.67;1673927;85;21093;-88
2022/04/30 02:10:37;;;;;;;37.35;22.42;;;;;;;1.77;75.48;102450.23;1666389;85;21109;-88
2022/04/30 02:13:06;;;;;;;37.23;23.90;;;;;;;1.76;75.59;102443.20;1638533;84;21170;-90
2022/04/30 02:15:38;;;;;;;34.33;21.30;;;;;;;1.74;75.62;102443.05;1644235;86;21161;-88
2022/04/30 02:18:08;;;;;;;33.42;21.93;;;;;;;1.74;75.67;102437.86;1647163;85;22000;-88
2022/04/30 02:20:38;;;;;;;42.33;23.30;;;;;;;1.76;75.71;102439.30;1650637;86;21128;-86
2022/04/30 02:23:09;;;;;;;37.10;23.57;;;;;;;1.75;75.61;102442.70;1658638;85;21142;-90
2022/04/30 02:25:36;;;;;;;40.48;24.52;;;;;;;1.72;75.62;102438.52;1644484;85;21121;-87
2022/04/30 02:28:08;;;;;;;39.48;24.40;;;;;;;1.72;75.72;102433.33;1650836;85;21399;-90
2022/04/30 02:31:00;;;;;;;45.52;25.32;;;;;;;1.72;75.69;102435.53;1652874;85;22243;-87
2022/04/30 02:33:27;;;;;;;40.92;25.10;;;;;;;1.71;75.64;102431.53;1672632;85;21096;-89
2022/04/30 02:35:58;;;;;;;41.53;26.35;;;;;;;1.69;75.62;102424.89;1634293;85;21289;-86
2022/04/30 02:38:24;;;;;;;45.25;26.85;;;;;;;1.68;75.62;102421.77;1672220;84;21274;-88
2022/04/30 02:40:52;;;;;;;40.35;23.90;;;;;;;1.67;75.51;102425.52;1716761;83;21089;-90
2022/04/30 02:43:26;;;;;;;42.38;24.65;;;;;;;1.64;75.40;102423.57;1713906;81;21809;-86
2022/04/30 02:45:47;;;;;;;38.90;24.32;;;;;;;1.61;75.31;102422.39;1704824;83;21070;-89
2022/04/30 02:48:15;;;;;;;40.67;25.05;;;;;;;1.54;75.25;102414.08;1703363;83;21181;-89
2022/04/30 02:50:42;;;;;;;38.48;25.10;;;;;;;1.45;75.17;102406.77;1662892;83;21143;-90
2022/04/30 02:53:08;;;;;;;43.00;26.30;;;;;;;1.43;75.22;102410.92;1718494;83;21561;-89
2022/04/30 02:55:36;;;;;;;40.25;26.02;;;;;;;1.41;75.27;102416.73;1709938;83;22624;-91
2022/04/30 03:00:55;;;;;;;40.25;24.02;;;;;;;1.40;75.52;102414.53;1703829;83;21106;-89
2022/04/30 03:03:19;;;;;;;44.23;26.25;;;;;;;1.39;75.65;102411.80;1666573;83;21086;-88
2022/04/30 03:05:48;;;;;;;43.65;25.08;;;;;;;1.37;75.79;102407.80;1680587;83;21549;-90
2022/04/30 03:08:20;;;;;;;43.25;25.65;;;;;;;1.39;75.87;102410.13;1686971;83;22748;-90
2022/04/30 03:10:54;;;;;;;44.35;24.92;;;;;;;1.41;75.97;102403.75;1685189;83;21063;-89
2022/04/30 03:13:21;;;;;;;47.15;25.50;;;;;;;1.44;75.96;102404.94;1679633;83;21094;-90
2022/04/30 03:15:49;;;;;;;44.08;24.70;;;;;;;1.47;75.96;102406.91;1690781;83;21050;-89
2022/04/30 03:23:51;;;;;;;40.10;23.95;;;;;;;1.57;75.82;102406.94;1657076;84;21114;-90
2022/04/30 03:26:20;;;;;;;39.83;22.90;;;;;;;1.60;75.73;102410.20;1654170;85;21608;-89
2022/04/30 03:28:47;;;;;;;37.03;23.00;;;;;;;1.61;75.69;102412.02;1707786;82;21078;-88
2022/04/30 03:31:18;;;;;;;40.03;22.93;;;;;;;1.62;75.68;102410.85;1706384;81;21231;-88
2022/04/30 03:33:48;;;;;;;35.38;22.45;;;;;;;1.66;75.61;102412.94;1711704;82;21805;-89
2022/04/30 03:36:17;;;;;;;38.38;23.52;;;;;;;1.69;75.55;102414.52;1705208;82;21020;-87
2022/04/30 03:38:44;;;;;;;35.20;21.80;;;;;;;1.75;75.94;102401.16;1716832;81;21131;-88
2022/04/30 03:41:11;;;;;;;35.08;21.23;;;;;;;2.43;77.23;102406.53;1715185;81;22038;-90
2022/04/30 03:43:38;;;;;;;32.73;19.67;;;;;;;3.62;77.95;102401.89;1722258;83;21544;-87
2022/04/30 03:46:08;;;;;;;34.25;19.55;;;;;;;4.78;77.42;102398.66;1693035;82;21873;-87
2022/04/30 03:48:34;;;;;;;29.70;19.20;;;;;;;5.89;76.48;102397.13;1684809;82;21085;-90
2022/04/30 03:51:09;;;;;;;31.17;18.70;;;;;;;6.96;75.45;102392.20;1694343;83;21599;-87
2022/04/30 03:53:36;;;;;;;29.95;17.75;;;;;;;7.96;74.34;102393.36;1695558;83;21077;-88
2022/04/30 03:56:05;;;;;;;27.42;17.75;;;;;;;8.88;72.56;102387.52;1714101;82;21076;-89
2022/04/30 03:58:32;;;;;;;25.57;16.52;;;;;;;9.67;71.38;102388.89;1668887;83;22375;-88
2022/04/30 04:03:36;;;;;;;19.23;14.30;;;;;;;11.21;68.93;102395.13;1686621;83;21627;-88
2022/04/30 04:06:09;;;;;;;23.83;15.75;;;;;;;12.04;67.76;102392.87;1671261;84;21137;-89
2022/04/30 04:08:36;;;;;;;23.52;15.78;;;;;;;12.68;66.41;102387.30;1686858;83;21144;-91
2022/04/30 04:11:03;;;;;;;22.40;15.05;;;;;;;13.38;65.08;102394.22;1686647;82;21852;-90
2022/04/30 04:19:06;;;;;;;18.05;12.70;;;;;;;15.14;61.51;102398.80;1685272;81;21065;-88
2022/04/30 04:21:39;;;;;;;18.10;11.88;;;;;;;15.88;60.28;102394.94;1702579;81;21151;-90
2022/04/30 04:26:53;;;;;;;15.53;10.23;;;;;;;17.10;58.73;102385.83;1701530;83;21033;-89
2022/04/30 04:29:19;;;;;;;14.28;10.38;;;;;;;17.88;57.72;102378.27;1693529;83;21081;-90
2022/04/30 04:31:46;;;;;;;16.52;10.82;;;;;;;18.80;56.88;102386.23;1700604;82;22072;-90
2022/04/30 04:34:15;;;;;;;15.30;10.82;;;;;;;19.55;55.64;102376.73;1700534;82;21100;-90
2022/04/30 04:36:42;;;;;;;15.05;10.80;;;;;;;20.10;54.29;102378.35;1705320;82;21962;-91
2022/04/30 04:39:15;;;;;;;14.93;10.40;;;;;;;20.75;53.36;102378.16;1690330;82;21141;-88
2022/04/30 04:41:49;;;;;;;14.65;11.43;;;;;;;21.44;52.28;102372.45;1691193;83;21073;-89
2022/04/30 04:44:16;;;;;;;16.52;10.10;;;;;;;22.01;51.28;102373.16;1664783;84;21124;-89
2022/04/30 04:46:44;;;;;;;15.45;10.25;;;;;;;22.59;50.07;102369.28;1682363;84;21202;-89
2022/04/30 04:49:13;;;;;;;15.43;12.00;;;;;;;23.14;49.22;102366.16;1677984;84;21067;-92
2022/04/30 04:51:40;;;;;;;15.63;11.43;;;;;;;23.71;48.22;102292.98;1676878;84;21132;-92
2022/04/30 04:54:07;;;;;;;15.28;10.68;;;;;;;23.88;46.76;102321.62;1681682;84;21659;-89
2022/04/30 04:56:38;;;;;;;14.30;10.80;;;;;;;24.34;46.25;102361.21;1686795;84;21066;-96
2022/04/30 04:59:05;;;;;;;14.40;11.95;;;;;;;24.70;44.98;102363.67;1701219;83;21065;-91
2022/04/30 05:01:40;;;;;;;14.78;11.25;;;;;;;24.98;44.71;102363.89;1693553;83;22633;-95
2022/04/30 05:04:10;;;;;;;16.10;11.50;;;;;;;25.50;43.95;102360.23;1671495;83;21059;-94
2022/04/30 05:09:39;;;;;;;15.10;11.83;;;;;;;26.45;42.37;102355.37;1684674;81;77377;-89
2022/04/30 05:12:10;;;;;;;15.28;11.75;;;;;;;26.69;41.63;102355.01;1682410;82;21256;-89
2022/04/30 05:14:37;;;;;;;19.23;12.88;;;;;;;27.03;40.71;102350.80;1671957;82;21800;-90
2022/04/30 05:17:05;;;;;;;15.50;12.05;;;;;;;26.98;39.89;102346.84;1692185;81;21397;-89
2022/04/30 05:19:32;;;;;;;16.67;11.55;;;;;;;27.12;40.15;102349.27;1696980;81;21616;-90
2022/04/30 05:21:59;;;;;;;14.05;10.48;;;;;;;27.60;39.81;102346.55;1647860;84;21352;-90
2022/04/30 05:24:26;;;;;;;15.83;10.28;;;;;;;27.84;38.57;102346.97;1687922;82;20995;-90
2022/04/30 05:26:58;;;;;;;17.32;11.30;;;;;;;27.08;37.52;102348.91;1658121;83;21407;-90
2022/04/30 05:29:28;;;;;;;16.48;10.43;;;;;;;25.53;36.91;102350.31;1667978;82;21198;-90
2022/04/30 05:32:01;;;;;;;14.00;10.75;;;;;;;23.65;37.03;102347.67;1628110;84;21588;-88
2022/04/30 05:34:28;;;;;;;15.32;9.95;;;;;;;22.01;37.34;102355.73;1667188;83;22007;-88
2022/04/30 05:36:57;;;;;;;13.00;9.35;;;;;;;20.43;38.33;102358.22;1669966;82;21143;-89
2022/04/30 05:39:26;;;;;;;13.45;9.75;;;;;;;19.33;39.33;102357.28;1656254;85;22752;-88
2022/04/30 05:41:57;;;;;;;10.70;7.78;;;;;;;18.05;39.87;102367.95;1659626;84;21088;-88
2022/04/30 05:44:27;;;;;;;11.90;8.03;;;;;;;16.03;42.05;102371.88;1656108;84;21244;-89
2022/04/30 05:46:54;;;;;;;10.78;7.22;;;;;;;16.03;42.05;102371.88;1685057;82;21368;-89
2022/04/30 05:49:21;;;;;;;11.55;7.90;;;;;;;15.35;42.91;102375.13;1668550;83;21155;-89
2022/04/30 05:51:49;;;;;;;14.43;8.73;;;;;;;14.83;43.80;102390.67;1654089;84;21726;-89
2022/04/30 05:54:16;;;;;;;11.50;7.67;;;;;;;14.38;44.44;102387.80;1659608;84;21402;-88
2022/04/30 05:56:46;;;;;;;11.57;7.90;;;;;;;14.02;45.06;102393.56;1659337;84;21083;-88
2022/04/30 05:59:12;;;;;;;12.07;7.78;;;;;;;13.69;45.47;102389.22;1688793;83;21165;-89
2022/04/30 06:01:45;;;;;;;10.10;7.08;;;;;;;13.26;45.83;102401.61;1688198;83;21129;-88
2022/04/30 06:04:12;;;;;;;11.90;8.30;;;;;;;12.90;46.54;102397.05;1689826;82;22880;-89
2022/04/30 06:06:41;;;;;;;11.05;8.33;;;;;;;12.53;47.03;102397.69;1641735;85;21152;-88
2022/04/30 06:09:10;;;;;;;13.70;8.25;;;;;;;12.32;47.55;102400.72;1701706;82;21596;-89
2022/04/30 06:11:37;;;;;;;14.18;8.10;;;;;;;12.06;47.94;102409.26;1706257;82;21087;-88
2022/04/30 06:14:05;;;;;;;12.70;9.13;;;;;;;11.86;48.13;102406.08;1697303;82;21145;-87
2022/04/30 06:16:31;;;;;;;13.90;8.78;;;;;;;11.66;48.46;102406.07;1715576;81;21790;-86
2022/04/30 06:19:02;;;;;;;14.25;8.80;;;;;;;11.47;48.89;102402.09;1686036;82;21079;-86
2022/04/30 06:21:31;;;;;;;13.83;7.28;;;;;;;11.31;49.42;102405.70;1702425;82;21071;-87
2022/04/30 06:23:58;;;;;;;10.82;7.28;;;;;;;11.23;49.70;102404.02;1702633;82;21118;-87
2022/04/30 06:26:25;;;;;;;8.95;5.95;;;;;;;11.15;49.91;102411.05;1678948;82;21141;-86
2022/04/30 06:28:52;;;;;;;9.35;5.53;;;;;;;11.00;49.53;102404.59;1661170;83;21802;-86
2022/04/30 06:31:19;;;;;;;7.78;5.22;;;;;;;10.87;49.65;102395.20;1657772;85;21578;-86
2022/04/30 06:33:52;;;;;;;9.18;6.17;;;;;;;10.75;49.87;102403.79;1700277;82;21162;-87
2022/04/30 06:36:20;;;;;;;9.00;6.17;;;;;;;10.63;49.92;102397.50;1681958;82;21140;-87
2022/04/30 06:38:50;;;;;;;8.85;5.80;;;;;;;10.49;50.27;102402.96;1685989;82;21145;-87
2022/04/30 06:41:15;;;;;;;11.53;6.15;;;;;;;10.44;50.62;102400.49;1659604;84;21971;-87
2022/04/30 06:43:42;;;;;;;11.60;6.85;;;;;;;10.40;50.78;102410.77;1636531;85;21164;-86
2022/04/30 06:46:11;;;;;;;12.28;7.15;;;;;;;10.38;51.12;102412.03;1690560;83;21095;-87
2022/04/30 06:48:38;;;;;;;9.58;6.20;;;;;;;10.35;51.33;102414.91;1687905;82;21114;-87
2022/04/30 06:51:06;;;;;;;6.85;4.65;;;;;;;10.35;51.69;102405.70;1651298;83;21595;-87
2022/04/30 06:59:10;;;;;;;6.25;4.65;;;;;;;10.44;51.02;102405.76;1706614;82;21175;-88
2022/04/30 07:04:25;;;;;;;9.38;6.05;;;;;;;10.46;51.03;102404.11;1692257;83;21145;-87
2022/04/30 07:06:52;;;;;;;;;;;;;;;10.45;51.29;102400.07;1702191;82;21970;-87
2022/04/30 07:09:21;;;;;;;7.15;4.58;;;;;;;10.44;51.61;102394.33;1661641;82;20215;-87
2022/04/30 07:15:21;;;;;;;9.28;6.10;;;;;;;10.52;51.61;102390.35;1546567;88;21547;-88
2022/04/30 07:17:50;;;;;;;8.73;5.45;;;;;;;10.56;51.57;102396.69;1579915;88;21432;-89
2022/04/30 07:20:19;;;;;;;9.15;5.37;;;;;;;10.54;51.55;102391.33;1658348;83;21818;-88
2022/04/30 07:22:47;;;;;;;11.22;6.65;;;;;;;10.58;51.90;102388.03;1687853;83;21114;-88
2022/04/30 07:25:17;;;;;;;12.00;5.72;;;;;;;10.69;51.95;102385.95;1696630;81;21129;-88
2022/04/30 07:27:46;;;;;;;11.68;5.97;;;;;;;10.79;52.23;102380.73;1663357;83;21078;-88
2022/04/30 07:30:13;;;;;;;13.50;5.65;;;;;;;10.89;52.45;102383.91;1687449;81;21834;-88
2022/04/30 07:32:40;;;;;;;7.25;5.60;;;;;;;10.98;52.33;102385.17;1687551;81;22789;-87
2022/04/30 07:35:11;;;;;;;6.70;4.75;;;;;;;11.05;51.75;102385.98;1650270;84;21661;-88
2022/04/30 07:37:41;;;;;;;12.23;7.62;;;;;;;11.05;51.43;102385.98;1681377;83;21936;-88
2022/04/30 07:40:19;;;;;;;8.63;5.33;;;;;;;11.07;51.28;102379.97;1652814;83;21175;-87
2022/04/30 07:42:41;;;;;;;6.90;5.10;;;;;;;11.15;51.13;102382.98;1646997;84;21062;-87
2022/04/30 07:45:10;;;;;;;9.20;3.95;;;;;;;11.21;50.88;102378.42;1671036;82;21734;-88
2022/04/30 07:47:37;;;;;;;7.05;4.15;;;;;;;11.24;50.32;102378.16;1679753;83;21115;-88
2022/04/30 07:50:10;;;;;;;7.35;3.22;;;;;;;11.30;50.19;102367.00;1677057;83;20990;-88
2022/04/30 07:52:37;;;;;;;5.03;3.62;;;;;;;11.40;49.89;102365.28;1686725;83;22102;-87
2022/04/30 07:55:04;;;;;;;6.90;3.90;;;;;;;11.46;49.72;102360.28;1638133;85;21189;-87
2022/04/30 07:57:32;;;;;;;6.50;3.85;;;;;;;11.45;49.69;102343.11;1659887;84;22553;-86
2022/04/30 08:00:04;;;;;;;6.47;3.75;;;;;;;11.62;49.49;102362.35;1663977;84;21157;-86
2022/04/30 08:02:29;;;;;;;5.67;4.00;;;;;;;11.68;49.33;102362.20;1663536;84;21085;-86
2022/04/30 08:04:56;;;;;;;8.33;3.22;;;;;;;11.78;48.95;102368.80;1676376;83;21072;-86
2022/04/30 08:07:24;;;;;;;3.92;2.95;;;;;;;11.82;48.71;102369.84;1674548;83;21182;-85
2022/04/30 08:09:53;;;;;;;6.05;3.47;;;;;;;11.81;48.14;102370.27;1656566;84;22189;-86
2022/04/30 08:12:20;;;;;;;5.87;2.95;;;;;;;11.75;48.01;102367.36;1659527;84;22302;-87
2022/04/30 08:14:48;;;;;;;6.45;3.02;;;;;;;11.75;48.04;102365.11;1654610;84;21124;-87
2022/04/30 08:17:15;;;;;;;7.95;2.30;;;;;;;11.80;48.15;102369.77;1696676;82;21083;-87
2022/04/30 08:19:43;;;;;;;6.58;2.40;;;;;;;11.90;47.92;102367.58;1689085;82;21298;-87
2022/04/30 08:22:13;;;;;;;4.17;2.10;;;;;;;11.99;47.63;102370.25;1685163;81;21803;-86
2022/04/30 08:24:45;;;;;;;3.35;2.00;;;;;;;12.02;47.53;102365.09;1687299;81;22060;-87
2022/04/30 08:27:12;;;;;;;2.50;2.05;;;;;;;12.11;47.63;102363.72;1681913;81;21622;-86
2022/04/30 08:29:38;;;;;;;4.25;2.35;;;;;;;12.16;47.34;102355.17;1694403;82;21101;-86
2022/04/30 08:32:10;;;;;;;4.65;2.20;;;;;;;12.21;47.23;102361.53;1687650;81;21568;-86
2022/04/30 08:34:36;;;;;;;6.22;2.55;;;;;;;12.30;47.33;102357.50;1686086;82;21823;-86
2022/04/30 08:37:03;;;;;;;7.03;2.90;;;;;;;12.39;47.25;102359.23;1689875;82;21519;-87
2022/04/30 08:39:55;;;;;;;;;;;;;;;;;;;;;
2022/04/30 08:42:13;;;;;;;4.25;2.77;;;;;;;12.41;46.66;102357.55;1654862;83;21477;-87
2022/04/30 08:44:40;;;;;;;4.37;2.75;;;;;;;12.42;46.55;102352.73;1699815;82;21185;-85
2022/04/30 08:47:10;;;;;;;4.33;3.10;;;;;;;12.44;46.59;102351.06;1688943;81;21782;-86
2022/04/30 08:49:36;;;;;;;3.75;2.90;;;;;;;12.48;46.46;102347.74;1694110;82;21098;-85
2022/04/30 08:52:05;;;;;;;6.30;2.80;;;;;;;12.47;46.33;102347.25;1693304;82;21158;-85
2022/04/30 08:54:32;;;;;;;4.12;2.83;;;;;;;12.46;46.55;102346.75;1693140;82;21578;-86
2022/04/30 08:56:59;;;;;;;3.83;2.40;;;;;;;12.55;46.71;102337.00;1675163;82;21180;-86
2022/04/30 08:59:27;;;;;;;5.20;2.52;;;;;;;12.61;46.15;102335.53;1685080;82;22053;-86
2022/04/30 09:01:58;;;;;;;5.05;2.50;;;;;;;12.62;46.11;102332.04;1687451;81;21731;-86
2022/04/30 09:04:24;;;;;;;2.77;2.20;;;;;;;12.68;46.41;102329.18;1656127;82;21505;-88
2022/04/30 09:06:55;;;;;;;7.53;2.42;;;;;;;12.75;45.79;102333.88;1701593;81;21082;-87
2022/04/30 09:09:32;;;;;;;7.08;2.35;;;;;;;12.79;45.67;102330.52;1699939;81;21097;-87
2022/04/30 09:12:10;;;;;;;3.58;2.20;;;;;;;12.84;45.67;102328.98;1678850;82;21688;-86
2022/04/30 09:14:40;;;;;;;2.47;1.32;;;;;;;12.90;45.39;102325.26;1685877;82;21071;-86
2022/04/30 09:17:11;;;;;;;5.30;1.70;;;;;;;12.95;43.96;102317.11;1691100;81;21121;-84
2022/04/30 09:19:54;;;;;;;3.47;2.15;;;;;;;12.88;43.77;102307.12;1687332;82;21154;-86
2022/04/30 09:22:36;;;;;;;4.47;2.30;;;;;;;12.88;44.27;102310.19;1684274;82;21113;-88
2022/04/30 09:25:16;;;;;;;2.83;2.02;;;;;;;12.93;44.14;102309.94;1690212;81;22629;-86
2022/04/30 09:27:54;;;;;;;4.10;2.60;;;;;;;12.93;44.18;102298.97;1686399;82;21130;-87
2022/04/30 09:30:29;;;;;;;4.30;2.10;;;;;;;12.99;44.08;102301.84;1689059;81;21081;-87
2022/04/30 09:33:10;;;;;;;3.90;2.65;;;;;;;13.03;44.20;102305.08;1688697;83;21137;-87
2022/04/30 09:38:25;;;;;;;3.40;2.10;;;;;;;13.13;43.98;102301.48;1676004;82;21888;-86
2022/04/30 09:41:01;;;;;;;2.52;2.05;;;;;;;13.21;44.07;102303.59;1694751;81;21169;-85
2022/04/30 09:43:31;;;;;;;3.27;2.20;;;;;;;13.31;43.56;102308.85;1702459;81;21079;-87
2022/04/30 09:46:07;;;;;;;5.42;2.83;;;;;;;13.34;43.16;102305.41;1683316;83;21188;-89
2022/04/30 09:54:05;;;;;;;2.77;1.92;;;;;;;13.46;43.04;102299.68;1691348;81;22246;-89
2022/04/30 09:56:37;;;;;;;4.10;2.30;;;;;;;13.40;43.15;102285.41;1684867;83;21560;-89
2022/04/30 09:59:11;;;;;;;4.28;2.52;;;;;;;13.56;42.98;102299.20;1662897;82;21007;-89
2022/04/30 10:01:44;;;;;;;5.35;2.50;;;;;;;13.53;42.81;102303.05;1694142;82;20999;-88
2022/04/30 10:04:18;;;;;;;4.12;2.52;;;;;;;13.50;42.56;102293.26;1699140;81;21953;-91
2022/04/30 10:06:48;;;;;;;2.85;1.98;;;;;;;13.47;42.57;102291.81;1688505;82;21029;-89
2022/04/30 10:09:22;;;;;;;5.22;2.55;;;;;;;13.50;42.72;102297.66;1663387;84;21099;-87
2022/04/30 10:12:20;;;;;;;4.42;2.33;;;;;;;13.54;42.74;102288.56;1655559;83;21582;-86
2022/04/30 10:15:04;;;;;;;3.10;2.00;;;;;;;13.54;42.52;102290.31;1691000;82;21158;-87
2022/04/30 10:17:35;;;;;;;3.33;2.30;;;;;;;13.57;42.72;102284.72;1633354;84;21929;-87
2022/04/30 10:20:16;;;;;;;3.33;2.10;;;;;;;13.70;42.82;102290.44;1664464;84;21050;-86
2022/04/30 10:22:56;;;;;;;3.58;1.62;;;;;;;13.73;42.42;102289.24;1690155;82;21129;-85
2022/04/30 10:25:43;;;;;;;15.10;3.50;;;;;;;13.75;42.41;102284.91;1660931;81;21273;-93
2022/04/30 10:28:19;;;;;;;8.33;2.22;;;;;;;13.80;42.51;102278.94;1688623;81;22189;-86
2022/04/30 10:30:49;;;;;;;2.92;1.87;;;;;;;13.95;42.88;102271.97;1683521;83;21845;-87
2022/04/30 10:33:16;;;;;;;3.17;2.25;;;;;;;14.06;42.43;102267.06;1699073;82;21702;-88
2022/04/30 10:35:50;;;;;;;3.52;2.00;;;;;;;14.13;42.14;102265.51;1683075;82;21140;-89
2022/04/30 10:38:19;;;;;;;3.55;2.02;;;;;;;14.12;41.80;102256.67;1691288;81;21503;-88
2022/04/30 10:40:51;;;;;;;3.85;2.20;;;;;;;14.05;41.44;102260.37;1689518;82;21248;-89
2022/04/30 10:43:21;;;;;;;5.37;2.15;;;;;;;13.94;41.48;102250.30;1688221;82;21827;-89
2022/04/30 10:45:48;;;;;;;3.25;1.85;;;;;;;13.98;41.70;102253.95;1661046;84;21134;-89
2022/04/30 10:48:14;;;;;;;3.12;1.77;;;;;;;14.12;41.87;102247.41;1599192;86;21516;-89
2022/04/30 10:50:44;;;;;;;5.87;2.72;;;;;;;14.27;41.67;102249.67;1624948;85;21078;-89
2022/04/30 10:53:12;;;;;;;3.60;2.10;;;;;;;14.36;41.60;102243.36;1625162;85;21171;-90
2022/04/30 10:55:40;;;;;;;7.28;5.37;;;;;;;14.45;41.09;102233.51;1633292;85;21871;-88
2022/04/30 10:58:11;;;;;;;5.58;2.40;;;;;;;14.48;41.23;102238.89;1652021;83;21103;-89
2022/04/30 11:00:39;;;;;;;10.67;5.23;;;;;;;14.57;41.25;102224.65;1652964;84;21245;-88
2022/04/30 11:03:10;;;;;;;7.20;2.98;;;;;;;14.66;40.80;102227.11;1661643;84;21103;-89
2022/04/30 11:05:51;;;;;;;3.08;2.25;;;;;;;14.71;40.76;102222.86;1672489;83;21516;-88
2022/04/30 11:08:21;;;;;;;4.62;2.50;;;;;;;14.73;40.13;102227.38;1667618;83;23169;-88
2022/04/30 11:10:56;;;;;;;9.10;2.60;;;;;;;14.73;39.75;102215.45;1659495;83;21100;-88
2022/04/30 11:13:22;;;;;;;4.30;2.40;;;;;;;14.76;39.94;102218.61;1654072;84;21085;-88
2022/04/30 11:15:49;;;;;;;2.92;2.02;;;;;;;14.84;39.35;102219.73;1628397;85;21555;-88
2022/04/30 11:18:20;;;;;;;2.62;1.82;;;;;;;14.91;39.59;102211.56;1672598;82;21126;-87
2022/04/30 11:20:50;;;;;;;4.37;3.95;;;;;;;15.07;39.71;102211.58;1631455;85;21831;-87
2022/04/30 11:23:23;;;;;;;1.85;1.65;;;;;;;15.25;39.13;102206.83;1695371;82;22709;-88
2022/04/30 11:26:02;;;;;;;2.10;1.70;;;;;;;15.36;38.97;102203.16;1688898;81;21133;-87
2022/04/30 11:28:31;;;;;;;4.17;2.12;;;;;;;15.39;38.66;102202.34;1690296;81;21208;-89
2022/04/30 11:30:59;;;;;;;4.22;1.98;;;;;;;15.39;38.47;102202.34;1695612;82;21192;-87
2022/04/30 11:33:37;;;;;;;1.82;1.55;;;;;;;15.47;38.35;102199.50;1696731;82;21826;-88
2022/04/30 11:36:06;;;;;;;5.85;1.70;;;;;;;15.60;38.23;102198.05;1693651;81;20943;-88
2022/04/30 11:38:33;;;;;;;3.47;1.72;;;;;;;15.76;37.96;102193.67;1689242;82;21108;-88
2022/04/30 11:41:10;;;;;;;2.15;1.30;;;;;;;15.83;37.41;102195.64;1668797;82;21197;-88
2022/04/30 11:43:36;;;;;;;4.10;1.72;;;;;;;15.85;37.39;102185.95;1689798;81;21138;-88
2022/04/30 11:46:03;;;;;;;5.17;1.70;;;;;;;15.80;37.27;102186.25;1688414;83;21600;-88
2022/04/30 11:48:38;;;;;;;2.25;1.50;;;;;;;15.82;37.24;102184.97;1696228;82;21066;-88
2022/04/30 11:51:09;;;;;;;3.90;2.55;;;;;;;15.78;36.96;102184.43;1690271;82;22372;-88
2022/04/30 11:53:38;;;;;;;3.40;2.20;;;;;;;15.79;37.20;102179.16;1686880;83;21097;-88
2022/04/30 11:56:04;;;;;;;5.67;2.98;;;;;;;15.82;37.33;102173.95;1690450;81;21141;-88
2022/04/30 11:58:42;;;;;;;7.25;2.25;;;;;;;15.87;36.85;102174.94;1637834;82;21940;-90
2022/04/30 12:01:24;;;;;;;4.87;1.52;;;;;;;15.94;37.07;102166.72;1656794;84;21115;-88
2022/04/30 12:03:58;;;;;;;3.47;1.40;;;;;;;15.87;36.76;102166.97;1622244;85;21109;-88
2022/04/30 12:06:26;;;;;;;2.98;1.90;;;;;;;15.77;36.52;102163.62;1614886;86;21236;-88
2022/04/30 12:08:55;;;;;;;3.45;1.32;;;;;;;15.63;36.48;102158.34;1657862;84;21713;-87
2022/04/30 12:11:24;;;;;;;2.30;1.67;;;;;;;15.58;36.61;102152.92;1642000;84;21858;-88
2022/04/30 12:14:01;;;;;;;2.17;1.70;;;;;;;15.68;37.18;102154.05;1647856;84;21043;-88
2022/04/30 12:16:36;;;;;;;4.75;1.80;;;;;;;15.86;37.35;102143.03;1650250;84;21583;-88
2022/04/30 12:24:54;;;;;;;3.50;2.22;;;;;;;16.28;36.60;102129.91;1652549;84;21855;-88
2022/04/30 12:27:18;;;;;;;4.83;2.12;;;;;;;16.23;36.13;102132.89;1644055;84;21166;-88
2022/04/30 12:30:05;;;;;;;6.58;2.58;;;;;;;16.18;36.39;102129.66;1695949;81;21027;-88
2022/04/30 12:32:38;;;;;;;4.10;2.08;;;;;;;16.19;35.93;102124.83;1691958;82;21067;-88